createdAt,value
2019-02-12T00:00:07.975Z,96.55
2019-02-12T00:01:07.989Z,95.62
2019-02-12T00:02:07.954Z,95.09
2019-02-12T00:03:07.944Z,94.78
2019-02-12T00:04:07.948Z,94.41
2019-02-12T00:05:07.922Z,94.41
2019-02-12T00:06:07.936Z,93.73
2019-02-12T00:07:07.905Z,93.87
2019-02-12T00:08:07.895Z,94.29
2019-02-12T00:09:07.878Z,95.02
2019-02-12T00:10:07.880Z,95.75
2019-02-12T00:11:07.876Z,95.64
2019-02-12T00:12:07.864Z,96.16
2019-02-12T00:13:07.837Z,96.06
2019-02-12T00:14:07.824Z,95.64
2019-02-12T00:15:07.810Z,95.75
2019-02-12T00:16:07.849Z,96.16
2019-02-12T00:17:07.785Z,95.54
2019-02-12T00:18:07.777Z,96.00
2019-02-12T00:19:07.765Z,95.64
2019-02-12T00:20:07.752Z,96.16
2019-02-12T00:21:09.391Z,95.64
2019-02-12T00:22:07.760Z,95.23
2019-02-12T00:23:07.719Z,96.00
2019-02-12T00:24:07.708Z,95.75
2019-02-12T00:25:07.699Z,95.89
2019-02-12T00:26:07.709Z,95.75
2019-02-12T00:27:07.674Z,95.85
2019-02-12T00:28:07.675Z,96.21
2019-02-12T00:29:07.657Z,95.64
2019-02-12T00:30:07.645Z,95.37
2019-02-12T00:31:07.655Z,96.00
2019-02-12T00:32:07.621Z,96.11
2019-02-12T00:33:07.608Z,96.11
2019-02-12T00:34:07.609Z,96.52
2019-02-12T00:35:07.593Z,96.58
2019-02-12T00:36:07.605Z,96.48
2019-02-12T00:37:07.563Z,96.21
2019-02-12T00:38:07.557Z,96.69
2019-02-12T00:39:07.551Z,96.69
2019-02-12T00:40:07.531Z,97.04
2019-02-12T00:41:07.554Z,95.95
2019-02-12T00:42:07.508Z,96.37
2019-02-12T00:43:07.497Z,96.69
2019-02-12T00:44:07.489Z,96.89
2019-02-12T00:45:07.475Z,96.69
2019-02-12T00:46:07.487Z,96.69
2019-02-12T00:47:07.458Z,96.89
2019-02-12T00:48:07.443Z,97.04
2019-02-12T00:49:07.436Z,96.52
2019-02-12T00:50:07.422Z,96.73
2019-02-12T00:51:07.434Z,97.20
2019-02-12T00:52:07.400Z,96.37
2019-02-12T00:53:07.394Z,95.95
2019-02-12T00:54:07.404Z,96.69
2019-02-12T00:55:07.368Z,97.00
2019-02-12T00:56:07.399Z,97.14
2019-02-12T00:57:07.353Z,97.04
2019-02-12T00:58:07.334Z,96.11
2019-02-12T00:59:07.324Z,97.09
2019-02-12T01:00:07.323Z,96.94
2019-02-12T01:01:07.329Z,96.83
2019-02-12T01:02:07.301Z,96.52
2019-02-12T01:03:07.278Z,96.73
2019-02-12T01:04:07.270Z,96.62
2019-02-12T01:05:07.263Z,96.94
2019-02-12T01:06:07.288Z,96.62
2019-02-12T01:07:07.234Z,96.62
2019-02-12T01:08:07.224Z,96.83
2019-02-12T01:09:07.213Z,96.52
2019-02-12T01:10:07.201Z,96.94
2019-02-12T01:11:07.220Z,96.73
2019-02-12T01:12:07.208Z,96.52
2019-02-12T01:13:07.167Z,96.73
2019-02-12T01:14:07.159Z,96.83
2019-02-12T01:15:07.143Z,96.88
2019-02-12T01:16:07.158Z,96.62
2019-02-12T01:17:07.126Z,96.62
2019-02-12T01:18:07.127Z,96.31
2019-02-12T01:19:07.103Z,96.62
2019-02-12T01:20:07.091Z,96.62
2019-02-12T01:21:07.108Z,96.73
2019-02-12T01:22:07.065Z,96.62
2019-02-12T01:23:07.058Z,96.62
2019-02-12T01:24:07.045Z,96.73
2019-02-12T01:25:07.054Z,96.73
2019-02-12T01:26:07.049Z,96.73
2019-02-12T01:27:07.014Z,96.83
2019-02-12T01:28:07.003Z,97.04
2019-02-12T01:29:06.992Z,96.73
2019-02-12T01:30:06.977Z,96.83
2019-02-12T01:31:06.997Z,96.73
2019-02-12T01:32:06.972Z,96.94
2019-02-12T01:33:06.949Z,96.62
2019-02-12T01:34:06.938Z,96.69
2019-02-12T01:35:06.921Z,97.20
2019-02-12T01:36:06.911Z,95.85
2019-02-12T01:37:06.923Z,95.95
2019-02-12T01:38:06.898Z,96.11
2019-02-12T01:39:06.907Z,96.42
2019-02-12T01:40:06.865Z,95.79
2019-02-12T01:41:06.858Z,95.68
2019-02-12T01:42:06.868Z,96.21
2019-02-12T01:43:06.834Z,96.00
2019-02-12T01:44:06.821Z,96.31
2019-02-12T01:45:06.840Z,96.83
2019-02-12T01:46:06.799Z,96.62
2019-02-12T01:47:06.818Z,96.73
2019-02-12T01:48:06.775Z,96.62
2019-02-12T01:49:06.764Z,96.69
2019-02-12T01:50:06.757Z,97.52
2019-02-12T01:51:06.748Z,97.31
2019-02-12T01:52:06.754Z,97.47
2019-02-12T01:53:06.719Z,96.64
2019-02-12T01:54:06.708Z,95.91
2019-02-12T01:55:06.700Z,95.95
2019-02-12T01:56:06.686Z,96.16
2019-02-12T01:57:06.743Z,95.60
2019-02-12T01:58:06.664Z,95.02
2019-02-12T01:59:06.654Z,95.75
2019-02-12T02:00:06.647Z,95.17
2019-02-12T02:01:06.632Z,95.89
2019-02-12T02:02:06.644Z,96.31
2019-02-12T02:03:06.642Z,97.00
2019-02-12T02:04:06.599Z,96.58
2019-02-12T02:05:06.586Z,96.06
2019-02-12T02:06:06.576Z,96.21
2019-02-12T02:07:06.589Z,96.58
2019-02-12T02:08:06.554Z,96.79
2019-02-12T02:09:06.569Z,96.69
2019-02-12T02:10:06.531Z,96.69
2019-02-12T02:11:06.521Z,96.89
2019-02-12T02:12:06.530Z,96.73
2019-02-12T02:13:06.496Z,96.73
2019-02-12T02:14:06.487Z,96.73
2019-02-12T02:15:06.486Z,96.62
2019-02-12T02:16:06.463Z,96.83
2019-02-12T02:17:06.478Z,97.25
2019-02-12T02:18:06.444Z,97.04
2019-02-12T02:19:06.428Z,96.73
2019-02-12T02:20:06.419Z,96.83
2019-02-12T02:21:06.428Z,97.46
2019-02-12T02:22:06.421Z,97.14
2019-02-12T02:23:06.384Z,97.31
2019-02-12T02:24:06.373Z,97.10
2019-02-12T02:25:06.364Z,96.58
2019-02-12T02:26:06.356Z,96.62
2019-02-12T02:27:06.385Z,96.94
2019-02-12T02:28:06.329Z,96.52
2019-02-12T02:29:06.319Z,97.14
2019-02-12T02:30:06.312Z,97.20
2019-02-12T02:31:06.296Z,96.58
2019-02-12T02:32:06.311Z,96.94
2019-02-12T02:33:06.279Z,96.94
2019-02-12T02:34:06.264Z,96.62
2019-02-12T02:35:06.256Z,97.77
2019-02-12T02:36:06.247Z,97.35
2019-02-12T02:37:06.257Z,97.88
2019-02-12T02:38:06.219Z,97.14
2019-02-12T02:39:06.221Z,97.35
2019-02-12T02:40:06.210Z,97.56
2019-02-12T02:41:06.188Z,97.77
2019-02-12T02:42:06.204Z,97.35
2019-02-12T02:43:06.178Z,97.25
2019-02-12T02:44:06.152Z,97.67
2019-02-12T02:45:06.157Z,97.25
2019-02-12T02:46:06.129Z,97.56
2019-02-12T02:47:06.144Z,97.62
2019-02-12T02:48:06.113Z,97.25
2019-02-12T02:49:06.097Z,97.10
2019-02-12T02:50:06.093Z,96.73
2019-02-12T02:51:06.086Z,96.62
2019-02-12T02:52:06.107Z,97.31
2019-02-12T02:53:06.055Z,97.31
2019-02-12T02:54:06.045Z,97.62
2019-02-12T02:55:06.033Z,96.79
2019-02-12T02:56:06.024Z,96.79
2019-02-12T02:57:06.034Z,96.52
2019-02-12T02:58:06.006Z,96.94
2019-02-12T02:59:06.001Z,97.52
2019-02-12T03:00:05.980Z,97.46
2019-02-12T03:01:05.970Z,96.94
2019-02-12T03:02:05.981Z,96.62
2019-02-12T03:03:05.948Z,97.25
2019-02-12T03:04:05.939Z,97.52
2019-02-12T03:05:05.951Z,96.79
2019-02-12T03:06:05.917Z,95.79
2019-02-12T03:07:05.930Z,96.04
2019-02-12T03:08:05.894Z,96.88
2019-02-12T03:09:05.883Z,96.56
2019-02-12T03:10:05.874Z,96.88
2019-02-12T03:11:05.874Z,97.61
2019-02-12T03:12:05.876Z,97.30
2019-02-12T03:13:05.840Z,97.81
2019-02-12T03:14:05.837Z,97.81
2019-02-12T03:15:05.818Z,97.88
2019-02-12T03:16:05.807Z,98.08
2019-02-12T03:17:05.800Z,97.50
2019-02-12T03:18:05.830Z,97.81
2019-02-12T03:19:05.782Z,97.98
2019-02-12T03:20:05.761Z,97.77
2019-02-12T03:21:05.749Z,97.62
2019-02-12T03:22:05.739Z,98.14
2019-02-12T03:23:05.755Z,97.89
2019-02-12T03:24:05.732Z,97.78
2019-02-12T03:25:05.716Z,97.47
2019-02-12T03:26:05.736Z,96.53
2019-02-12T03:27:05.685Z,96.79
2019-02-12T03:28:05.697Z,95.75
2019-02-12T03:29:05.667Z,95.75
2019-02-12T03:30:05.666Z,96.06
2019-02-12T03:31:05.650Z,96.00
2019-02-12T03:32:05.630Z,96.11
2019-02-12T03:33:05.640Z,96.31
2019-02-12T03:34:05.606Z,96.52
2019-02-12T03:35:05.593Z,96.88
2019-02-12T03:36:05.590Z,96.62
2019-02-12T03:37:05.573Z,96.67
2019-02-12T03:38:05.582Z,96.77
2019-02-12T03:39:05.548Z,97.40
2019-02-12T03:40:05.538Z,97.30
2019-02-12T03:41:05.524Z,97.61
2019-02-12T03:42:05.537Z,96.98
2019-02-12T03:43:05.524Z,97.30
2019-02-12T03:44:05.492Z,97.81
2019-02-12T03:45:05.480Z,97.19
2019-02-12T03:46:05.470Z,97.61
2019-02-12T03:47:05.457Z,98.29
2019-02-12T03:48:05.492Z,97.81
2019-02-12T03:49:05.435Z,97.98
2019-02-12T03:50:05.423Z,97.77
2019-02-12T03:51:05.413Z,97.25
2019-02-12T03:52:12.679Z,97.31
2019-02-12T03:53:06.411Z,96.62
2019-02-12T03:54:05.401Z,96.79
2019-02-12T03:55:05.393Z,96.89
2019-02-12T03:56:05.364Z,97.99
2019-02-12T03:57:05.347Z,97.68
2019-02-12T03:58:05.357Z,97.64
2019-02-12T03:59:05.323Z,97.64
2019-02-12T04:00:05.321Z,97.49
2019-02-12T04:01:05.299Z,97.07
2019-02-12T04:02:05.291Z,97.07
2019-02-12T04:03:05.300Z,96.45
2019-02-12T04:04:05.267Z,95.89
2019-02-12T04:05:05.257Z,94.99
2019-02-12T04:06:05.268Z,94.47
2019-02-12T04:07:05.239Z,93.64
2019-02-12T04:08:05.247Z,93.79
2019-02-12T04:09:05.210Z,93.62
2019-02-12T04:10:05.200Z,94.87
2019-02-12T04:11:05.193Z,95.60
2019-02-12T04:12:05.214Z,96.49
2019-02-12T04:13:05.188Z,96.34
2019-02-12T04:14:05.161Z,95.20
2019-02-12T04:15:05.163Z,95.78
2019-02-12T04:16:05.145Z,94.68
2019-02-12T04:17:05.121Z,94.99
2019-02-12T04:18:05.147Z,93.95
2019-02-12T04:19:05.141Z,93.95
2019-02-12T04:20:05.089Z,94.47
2019-02-12T04:21:05.076Z,94.41
2019-02-12T04:22:05.065Z,94.45
2019-02-12T04:23:05.078Z,94.76
2019-02-12T04:24:05.042Z,94.66
2019-02-12T04:25:05.043Z,95.91
2019-02-12T04:26:05.021Z,95.08
2019-02-12T04:27:05.013Z,96.06
2019-02-12T04:28:05.024Z,95.75
2019-02-12T04:29:04.989Z,95.95
2019-02-12T04:30:04.977Z,95.33
2019-02-12T04:31:04.973Z,95.68
2019-02-12T04:32:04.963Z,96.62
2019-02-12T04:33:04.963Z,96.73
2019-02-12T04:34:04.931Z,97.20
2019-02-12T04:35:04.918Z,96.52
2019-02-12T04:36:04.910Z,97.25
2019-02-12T04:37:04.915Z,97.31
2019-02-12T04:38:04.907Z,97.52
2019-02-12T04:39:04.878Z,97.41
2019-02-12T04:40:04.864Z,96.79
2019-02-12T04:41:04.856Z,97.41
2019-02-12T04:42:04.842Z,97.52
2019-02-12T04:43:04.894Z,97.20
2019-02-12T04:44:04.820Z,97.10
2019-02-12T04:45:04.815Z,96.69
2019-02-12T04:46:04.797Z,96.73
2019-02-12T04:47:04.803Z,96.94
2019-02-12T04:48:04.799Z,97.14
2019-02-12T04:49:04.773Z,97.35
2019-02-12T04:50:04.752Z,97.46
2019-02-12T04:51:04.739Z,97.25
2019-02-12T04:52:04.727Z,97.72
2019-02-12T04:53:04.743Z,97.72
2019-02-12T04:54:04.708Z,97.41
2019-02-12T04:55:06.087Z,97.52
2019-02-12T04:56:04.684Z,97.78
2019-02-12T04:57:04.672Z,96.89
2019-02-12T04:58:04.662Z,96.89
2019-02-12T04:59:04.682Z,96.94
2019-02-12T05:00:04.639Z,96.88
2019-02-12T05:01:04.706Z,97.40
2019-02-12T05:02:04.621Z,97.98
2019-02-12T05:03:04.604Z,98.08
2019-02-12T05:04:04.617Z,98.02
2019-02-12T05:05:04.583Z,98.23
2019-02-12T05:06:04.576Z,98.60
2019-02-12T05:07:04.571Z,97.81
2019-02-12T05:08:04.551Z,97.77
2019-02-12T05:09:04.562Z,97.77
2019-02-12T05:10:04.527Z,98.44
2019-02-12T05:11:04.523Z,98.34
2019-02-12T05:12:04.504Z,98.96
2019-02-12T05:13:04.528Z,98.39
2019-02-12T05:14:04.506Z,98.55
2019-02-12T05:15:04.470Z,98.55
2019-02-12T05:16:04.458Z,98.34
2019-02-12T05:17:04.458Z,98.50
2019-02-12T05:18:04.439Z,98.34
2019-02-12T05:19:04.478Z,98.13
2019-02-12T05:20:04.418Z,98.28
2019-02-12T05:21:04.416Z,98.90
2019-02-12T05:22:04.394Z,98.49
2019-02-12T05:23:04.379Z,98.80
2019-02-12T05:24:04.396Z,98.69
2019-02-12T05:25:04.388Z,98.74
2019-02-12T05:26:04.348Z,99.11
2019-02-12T05:27:04.338Z,99.43
2019-02-12T05:28:04.325Z,99.32
2019-02-12T05:29:04.339Z,99.32
2019-02-12T05:30:04.301Z,99.53
2019-02-12T05:31:04.298Z,99.22
2019-02-12T05:32:04.290Z,99.89
2019-02-12T05:33:04.270Z,99.79
2019-02-12T05:34:04.284Z,99.57
2019-02-12T05:35:04.249Z,99.99
2019-02-12T05:36:04.236Z,99.99
2019-02-12T05:37:04.225Z,99.99
2019-02-12T05:38:04.227Z,99.99
2019-02-12T05:39:04.240Z,99.95
2019-02-12T05:40:04.207Z,99.99
2019-02-12T05:41:04.183Z,99.53
2019-02-12T05:42:04.171Z,99.32
2019-02-12T05:43:04.172Z,99.53
2019-02-12T05:44:04.197Z,99.57
2019-02-12T05:45:04.149Z,99.74
2019-02-12T05:46:04.129Z,99.43
2019-02-12T05:47:06.784Z,99.99
2019-02-12T05:48:04.108Z,99.99
2019-02-12T05:49:04.123Z,99.99
2019-02-12T05:50:04.102Z,99.99
2019-02-12T05:51:04.077Z,99.99
2019-02-12T05:52:04.065Z,99.84
2019-02-12T05:53:04.055Z,99.99
2019-02-12T05:54:04.068Z,99.99
2019-02-12T05:55:04.049Z,99.99
2019-02-12T05:56:04.030Z,99.99
2019-02-12T05:57:04.009Z,99.99
2019-02-12T05:58:03.998Z,99.99
2019-02-12T05:59:04.012Z,99.99
2019-02-12T06:00:03.985Z,99.99
2019-02-12T06:01:03.968Z,99.99
2019-02-12T06:02:03.988Z,99.99
2019-02-12T06:03:03.943Z,99.99
2019-02-12T06:04:03.959Z,99.99
2019-02-12T06:05:03.928Z,99.95
2019-02-12T06:06:03.916Z,99.99
2019-02-12T06:07:03.905Z,99.99
2019-02-12T06:08:03.902Z,99.99
2019-02-12T06:09:03.903Z,99.99
2019-02-12T06:10:03.869Z,99.99
2019-02-12T06:11:03.860Z,99.99
2019-02-12T06:12:03.845Z,99.99
2019-02-12T06:13:03.833Z,99.99
2019-02-12T06:14:03.863Z,99.99
2019-02-12T06:15:03.809Z,99.99
2019-02-12T06:16:03.801Z,99.99
2019-02-12T06:17:03.790Z,99.99
2019-02-12T06:18:03.779Z,99.99
2019-02-12T06:19:03.790Z,99.99
2019-02-12T06:20:03.765Z,99.99
2019-02-12T06:21:03.745Z,99.99
2019-02-12T06:22:03.739Z,99.99
2019-02-12T06:23:04.362Z,99.99
2019-02-12T06:24:03.734Z,99.99
2019-02-12T06:25:03.707Z,99.99
2019-02-12T06:26:03.704Z,99.99
2019-02-12T06:27:03.682Z,99.74
2019-02-12T06:28:03.668Z,99.99
2019-02-12T06:29:03.694Z,99.99
2019-02-12T06:30:03.648Z,99.99
2019-02-12T06:31:03.633Z,99.99
2019-02-12T06:32:03.627Z,99.99
2019-02-12T06:33:07.612Z,99.99
2019-02-12T06:34:03.626Z,99.99
2019-02-12T06:35:03.591Z,99.99
2019-02-12T06:36:03.580Z,99.99
2019-02-12T06:37:03.567Z,99.99
2019-02-12T06:38:03.555Z,99.99
2019-02-12T06:39:03.601Z,99.99
2019-02-12T06:40:03.534Z,99.99
2019-02-12T06:41:03.520Z,99.99
2019-02-12T06:42:03.515Z,99.99
2019-02-12T06:43:03.500Z,99.99
2019-02-12T06:44:03.493Z,99.99
2019-02-12T06:45:03.522Z,99.99
2019-02-12T06:46:03.470Z,99.99
2019-02-12T06:47:03.470Z,99.99
2019-02-12T06:48:03.461Z,99.99
2019-02-12T06:49:03.433Z,99.99
2019-02-12T06:50:03.443Z,99.99
2019-02-12T06:51:03.423Z,99.99
2019-02-12T06:52:03.406Z,99.99
2019-02-12T06:53:12.054Z,99.99
2019-02-12T06:54:04.377Z,99.99
2019-02-12T06:55:03.389Z,99.99
2019-02-12T06:56:03.382Z,99.74
2019-02-12T06:57:03.368Z,99.99
2019-02-12T06:58:03.333Z,99.99
2019-02-12T06:59:03.322Z,99.99
2019-02-12T07:00:03.337Z,99.99
2019-02-12T07:01:03.328Z,99.99
2019-02-12T07:02:03.307Z,99.99
2019-02-12T07:03:03.284Z,99.99
2019-02-12T07:04:03.270Z,99.99
2019-02-12T07:05:03.272Z,99.99
2019-02-12T07:06:03.271Z,99.99
2019-02-12T07:07:03.233Z,99.99
2019-02-12T07:08:03.222Z,99.99
2019-02-12T07:09:03.219Z,99.99
2019-02-12T07:10:03.263Z,99.90
2019-02-12T07:11:03.320Z,99.33
2019-02-12T07:12:03.185Z,99.65
2019-02-12T07:13:03.421Z,99.54
2019-02-12T07:14:03.171Z,99.85
2019-02-12T07:15:03.210Z,99.60
2019-02-12T07:16:03.132Z,98.87
2019-02-12T07:17:03.122Z,99.18
2019-02-12T07:18:03.110Z,99.08
2019-02-12T07:19:03.098Z,98.56
2019-02-12T07:20:03.143Z,98.97
2019-02-12T07:21:03.086Z,98.72
2019-02-12T07:22:03.162Z,98.66
2019-02-12T07:23:03.053Z,98.14
2019-02-12T07:24:03.041Z,97.62
2019-02-12T07:25:03.090Z,98.14
2019-02-12T07:26:03.025Z,98.25
2019-02-12T07:27:03.009Z,98.56
2019-02-12T07:28:03.017Z,98.46
2019-02-12T07:29:02.993Z,98.52
2019-02-12T07:30:03.016Z,98.14
2019-02-12T07:31:02.974Z,97.37
2019-02-12T07:32:02.953Z,97.68
2019-02-12T07:33:03.003Z,96.53
2019-02-12T07:34:02.945Z,96.69
2019-02-12T07:35:02.943Z,96.58
2019-02-12T07:36:02.909Z,96.53
2019-02-12T07:37:02.902Z,96.58
2019-02-12T07:38:02.886Z,96.62
2019-02-12T07:39:02.882Z,96.89
2019-02-12T07:40:02.917Z,97.31
2019-02-12T07:41:02.857Z,96.89
2019-02-12T07:42:02.846Z,97.68
2019-02-12T07:43:02.831Z,97.68
2019-02-12T07:44:02.882Z,97.27
2019-02-12T07:45:02.832Z,97.16
2019-02-12T07:46:02.803Z,96.58
2019-02-12T07:47:02.795Z,96.64
2019-02-12T07:48:02.804Z,96.37
2019-02-12T07:49:02.766Z,96.79
2019-02-12T07:50:02.781Z,97.31
2019-02-12T07:51:02.744Z,97.20
2019-02-12T07:52:02.731Z,97.41
2019-02-12T07:53:02.797Z,97.25
2019-02-12T07:54:02.716Z,98.13
2019-02-12T07:55:02.721Z,98.08
2019-02-12T07:56:02.691Z,98.29
2019-02-12T07:57:02.677Z,98.19
2019-02-12T07:58:02.929Z,98.08
2019-02-12T07:59:02.700Z,98.71
2019-02-12T08:00:02.754Z,98.29
2019-02-12T08:01:02.664Z,98.50
2019-02-12T08:02:02.656Z,98.60
2019-02-12T08:03:02.639Z,98.97
2019-02-12T08:04:02.689Z,98.56
2019-02-12T08:05:02.670Z,98.56
2019-02-12T08:06:02.587Z,98.35
2019-02-12T08:07:02.574Z,98.25
2019-02-12T08:08:02.562Z,98.04
2019-02-12T08:09:02.546Z,97.52
2019-02-12T08:10:02.556Z,98.04
2019-02-12T08:11:02.545Z,97.41
2019-02-12T08:12:02.513Z,98.14
2019-02-12T08:13:02.521Z,97.78
2019-02-12T08:14:02.490Z,97.58
2019-02-12T08:15:02.515Z,97.16
2019-02-12T08:16:02.485Z,97.85
2019-02-12T08:17:02.487Z,97.49
2019-02-12T08:18:02.471Z,96.92
2019-02-12T08:19:02.446Z,97.44
2019-02-12T08:20:02.494Z,95.62
2019-02-12T08:21:02.445Z,95.09
2019-02-12T08:22:02.435Z,94.98
2019-02-12T08:23:02.415Z,95.70
2019-02-12T08:24:02.376Z,96.75
2019-02-12T08:25:02.367Z,96.18
2019-02-12T08:26:02.380Z,95.60
2019-02-12T08:27:02.396Z,96.58
2019-02-12T08:28:02.345Z,96.53
2019-02-12T08:29:02.358Z,96.16
2019-02-12T08:30:02.313Z,97.20
2019-02-12T08:31:02.324Z,97.52
2019-02-12T08:32:02.289Z,97.52
2019-02-12T08:33:02.276Z,97.20
2019-02-12T08:34:02.269Z,97.52
2019-02-12T08:35:02.259Z,97.52
2019-02-12T08:36:02.270Z,97.52
2019-02-12T08:37:02.233Z,97.20
2019-02-12T08:38:02.247Z,96.69
2019-02-12T08:39:02.213Z,97.41
2019-02-12T08:40:02.200Z,97.04
2019-02-12T08:41:02.221Z,96.79
2019-02-12T08:42:02.177Z,96.58
2019-02-12T08:43:02.190Z,97.10
2019-02-12T08:44:02.155Z,96.79
2019-02-12T08:45:02.146Z,97.62
2019-02-12T08:46:02.157Z,96.58
2019-02-12T08:47:02.141Z,96.75
2019-02-12T08:48:02.112Z,96.53
2019-02-12T08:49:02.107Z,96.86
2019-02-12T08:50:02.094Z,95.56
2019-02-12T08:51:02.112Z,95.66
2019-02-12T08:52:02.072Z,95.45
2019-02-12T08:53:02.079Z,95.87
2019-02-12T08:54:02.048Z,95.70
2019-02-12T08:55:02.038Z,95.70
2019-02-12T08:56:02.114Z,95.95
2019-02-12T08:57:02.012Z,95.95
2019-02-12T08:58:02.005Z,96.69
2019-02-12T08:59:02.016Z,96.26
2019-02-12T09:00:03.628Z,97.52
2019-02-12T09:01:02.004Z,97.52
2019-02-12T09:02:01.960Z,96.48
2019-02-12T09:03:01.949Z,96.58
2019-02-12T09:04:01.939Z,97.10
2019-02-12T09:05:01.973Z,97.16
2019-02-12T09:06:03.851Z,96.75
2019-02-12T09:07:01.905Z,96.39
2019-02-12T09:08:01.893Z,95.97
2019-02-12T09:09:01.883Z,96.08
2019-02-12T09:10:01.881Z,95.91
2019-02-12T09:11:01.956Z,95.66
2019-02-12T09:12:01.849Z,95.97
2019-02-12T09:13:01.861Z,95.87
2019-02-12T09:14:01.851Z,95.45
2019-02-12T09:15:01.831Z,96.12
2019-02-12T09:16:01.832Z,95.60
2019-02-12T09:17:01.839Z,95.29
2019-02-12T09:18:01.788Z,95.60
2019-02-12T09:19:01.781Z,95.39
2019-02-12T09:20:01.772Z,96.22
2019-02-12T09:21:01.775Z,96.12
2019-02-12T09:22:01.742Z,95.70
2019-02-12T09:23:01.742Z,96.01
2019-02-12T09:24:03.504Z,95.91
2019-02-12T09:25:01.719Z,95.70
2019-02-12T09:26:01.726Z,96.12
2019-02-12T09:27:01.692Z,95.70
2019-02-12T09:28:01.708Z,95.81
2019-02-12T09:29:01.695Z,95.70
2019-02-12T09:30:01.710Z,95.85
2019-02-12T09:31:01.684Z,96.01
2019-02-12T09:32:01.633Z,96.53
2019-02-12T09:33:01.631Z,96.75
2019-02-12T09:34:01.618Z,96.49
2019-02-12T09:35:01.624Z,96.08
2019-02-12T09:36:01.628Z,95.76
2019-02-12T09:37:01.581Z,95.97
2019-02-12T09:38:01.569Z,95.66
2019-02-12T09:39:01.555Z,95.97
2019-02-12T09:40:01.545Z,96.08
2019-02-12T09:41:01.625Z,95.87
2019-02-12T09:42:01.522Z,95.66
2019-02-12T09:43:01.511Z,95.45
2019-02-12T09:44:01.500Z,95.93
2019-02-12T09:45:01.495Z,95.51
2019-02-12T09:46:01.502Z,94.68
2019-02-12T09:47:01.470Z,94.78
2019-02-12T09:48:01.463Z,94.78
2019-02-12T09:49:01.453Z,94.93
2019-02-12T09:50:01.457Z,95.03
2019-02-12T09:51:01.497Z,95.14
2019-02-12T09:52:01.412Z,95.25
2019-02-12T09:53:01.450Z,95.25
2019-02-12T09:54:08.633Z,95.66
2019-02-12T09:55:02.380Z,95.87
2019-02-12T09:56:01.426Z,95.97
2019-02-12T09:57:01.367Z,95.66
2019-02-12T09:58:01.357Z,95.20
2019-02-12T09:59:01.337Z,95.09
2019-02-12T10:00:01.369Z,95.93
2019-02-12T10:01:01.342Z,95.57
2019-02-12T10:02:01.303Z,95.57
2019-02-12T10:03:01.293Z,95.67
2019-02-12T10:04:01.283Z,94.74
2019-02-12T10:05:01.267Z,94.89
2019-02-12T10:06:01.311Z,95.26
2019-02-12T10:07:01.247Z,94.95
2019-02-12T10:08:01.242Z,94.95
2019-02-12T10:09:01.357Z,94.84
2019-02-12T10:10:01.217Z,95.05
2019-02-12T10:11:01.205Z,94.84
2019-02-12T10:12:01.216Z,95.72
2019-02-12T10:13:01.257Z,95.09
2019-02-12T10:14:01.168Z,94.68
2019-02-12T10:15:01.159Z,95.89
2019-02-12T10:16:01.151Z,96.03
2019-02-12T10:17:01.166Z,95.36
2019-02-12T10:18:01.123Z,95.99
2019-02-12T10:19:01.111Z,95.05
2019-02-12T10:20:01.124Z,94.89
2019-02-12T10:21:01.095Z,95.67
2019-02-12T10:22:01.107Z,95.15
2019-02-12T10:23:01.080Z,95.51
2019-02-12T10:24:01.057Z,95.40
2019-02-12T10:25:01.048Z,95.62
2019-02-12T10:26:01.043Z,95.67
2019-02-12T10:27:01.059Z,95.47
2019-02-12T10:28:01.014Z,94.74
2019-02-12T10:29:01.008Z,94.84
2019-02-12T10:30:00.991Z,94.74
2019-02-12T10:31:00.981Z,94.74
2019-02-12T10:32:08.494Z,94.95
2019-02-12T10:33:01.957Z,94.70
2019-02-12T10:34:00.946Z,94.59
2019-02-12T10:35:00.948Z,93.66
2019-02-12T10:36:00.923Z,93.82
2019-02-12T10:37:00.947Z,92.36
2019-02-12T10:38:01.038Z,92.47
2019-02-12T10:39:00.889Z,92.32
2019-02-12T10:40:00.879Z,92.01
2019-02-12T10:41:00.887Z,92.07
2019-02-12T10:42:00.886Z,92.28
2019-02-12T10:43:00.849Z,91.97
2019-02-12T10:44:00.850Z,91.97
2019-02-12T10:45:00.823Z,91.86
2019-02-12T10:46:00.813Z,91.66
2019-02-12T10:47:00.833Z,91.39
2019-02-12T10:48:00.789Z,92.11
2019-02-12T10:49:00.779Z,92.57
2019-02-12T10:50:00.771Z,92.74
2019-02-12T10:51:00.758Z,92.43
2019-02-12T10:52:00.768Z,91.91
2019-02-12T10:53:00.748Z,92.18
2019-02-12T10:54:00.724Z,92.69
2019-02-12T10:55:00.715Z,92.38
2019-02-12T10:56:00.702Z,92.49
2019-02-12T10:57:00.730Z,91.93
2019-02-12T10:58:00.683Z,91.20
2019-02-12T10:59:00.679Z,91.66
2019-02-12T11:00:00.657Z,91.55
2019-02-12T11:01:00.651Z,91.76
2019-02-12T11:02:00.660Z,92.14
2019-02-12T11:03:00.624Z,91.52
2019-02-12T11:04:00.615Z,92.03
2019-02-12T11:05:00.615Z,91.89
2019-02-12T11:06:00.591Z,91.27
2019-02-12T11:07:00.604Z,91.16
2019-02-12T11:08:00.574Z,90.02
2019-02-12T11:09:00.557Z,90.64
2019-02-12T11:10:00.546Z,91.12
2019-02-12T11:11:00.543Z,91.18
2019-02-12T11:12:00.561Z,89.62
2019-02-12T11:13:00.534Z,90.45
2019-02-12T11:14:00.505Z,88.90
2019-02-12T11:15:00.492Z,90.25
2019-02-12T11:16:00.481Z,88.79
2019-02-12T11:17:00.504Z,89.25
2019-02-12T11:18:00.464Z,89.19
2019-02-12T11:19:00.470Z,90.75
2019-02-12T11:20:00.437Z,90.23
2019-02-12T11:21:00.425Z,90.85
2019-02-12T11:22:00.443Z,90.50
2019-02-12T11:23:00.404Z,89.29
2019-02-12T11:24:00.396Z,90.23
2019-02-12T11:25:00.395Z,90.37
2019-02-12T11:26:00.411Z,91.27
2019-02-12T11:27:00.394Z,90.44
2019-02-12T11:28:00.370Z,90.54
2019-02-12T11:29:00.341Z,89.98
2019-02-12T11:30:00.325Z,90.29
2019-02-12T11:31:00.322Z,90.50
2019-02-12T11:32:00.331Z,89.56
2019-02-12T11:33:00.292Z,90.39
2019-02-12T11:34:00.284Z,90.19
2019-02-12T11:35:00.287Z,90.29
2019-02-12T11:36:00.267Z,89.29
2019-02-12T11:37:00.274Z,90.50
2019-02-12T11:38:00.237Z,90.29
2019-02-12T11:39:00.230Z,90.19
2019-02-12T11:40:00.233Z,90.25
2019-02-12T11:41:00.220Z,89.73
2019-02-12T11:42:00.220Z,89.73
2019-02-12T11:43:00.184Z,90.04
2019-02-12T11:44:00.174Z,89.00
2019-02-12T11:45:00.271Z,89.42
2019-02-12T11:46:00.183Z,90.52
2019-02-12T11:47:00.206Z,89.69
2019-02-12T11:48:00.129Z,88.96
2019-02-12T11:49:00.122Z,88.40
2019-02-12T11:50:00.123Z,86.85
2019-02-12T11:51:00.120Z,87.51
2019-02-12T11:52:00.107Z,88.18
2019-02-12T11:53:00.105Z,89.11
2019-02-12T11:54:00.065Z,89.11
2019-02-12T11:55:00.052Z,87.87
2019-02-12T11:56:00.041Z,89.31
2019-02-12T11:57:00.032Z,89.28
2019-02-12T11:58:00.086Z,89.03
2019-02-12T11:59:00.005Z,87.47
2019-02-12T11:59:59.994Z,87.99
2019-02-12T12:00:59.985Z,88.57
2019-02-12T12:01:59.972Z,87.27
2019-02-12T12:03:00.003Z,87.68
2019-02-12T12:03:59.954Z,87.16
2019-02-12T12:04:59.998Z,88.13
2019-02-12T12:05:59.933Z,88.65
2019-02-12T12:06:59.922Z,88.55
2019-02-12T12:07:59.956Z,88.61
2019-02-12T12:08:59.903Z,87.57
2019-02-12T12:09:59.885Z,87.68
2019-02-12T12:10:59.870Z,87.06
2019-02-12T12:11:59.862Z,87.37
2019-02-12T12:12:59.878Z,86.40
2019-02-12T12:13:59.847Z,87.12
2019-02-12T12:14:59.834Z,86.60
2019-02-12T12:15:59.817Z,86.40
2019-02-12T12:16:59.816Z,87.54
2019-02-12T12:17:59.858Z,86.50
2019-02-12T12:18:59.819Z,86.67
2019-02-12T12:19:59.814Z,86.09
2019-02-12T12:20:59.816Z,86.40
2019-02-12T12:21:59.750Z,85.74
2019-02-12T12:22:59.774Z,85.53
2019-02-12T12:23:59.742Z,85.11
2019-02-12T12:24:59.715Z,86.50
2019-02-12T12:25:59.716Z,85.84
2019-02-12T12:26:59.692Z,85.60
2019-02-12T12:27:59.759Z,85.28
2019-02-12T12:28:59.672Z,84.97
2019-02-12T12:29:59.667Z,85.91
2019-02-12T12:30:59.649Z,84.15
2019-02-12T12:31:59.644Z,84.77
2019-02-12T12:32:59.677Z,84.77
2019-02-12T12:33:59.616Z,85.49
2019-02-12T12:34:59.643Z,84.73
2019-02-12T12:35:59.623Z,84.94
2019-02-12T12:36:59.613Z,83.84
2019-02-12T12:37:59.600Z,85.86
2019-02-12T12:38:59.559Z,84.94
2019-02-12T12:39:59.586Z,83.53
2019-02-12T12:40:59.537Z,83.46
2019-02-12T12:41:59.550Z,84.56
2019-02-12T12:42:59.581Z,84.60
2019-02-12T12:43:59.574Z,84.50
2019-02-12T12:44:59.503Z,84.39
2019-02-12T12:45:59.480Z,84.66
2019-02-12T12:46:59.475Z,85.02
2019-02-12T12:47:59.487Z,85.11
2019-02-12T12:48:59.448Z,85.08
2019-02-12T12:49:59.442Z,86.21
2019-02-12T12:50:59.466Z,84.77
2019-02-12T12:51:59.414Z,85.70